sensor_id;sensor_type;location;lat;lon;timestamp;P1;durP1;ratioP1;P2;durP2;ratioP2
15563;SDS011;7883;52.554;13.364;2023-09-07T00:01:51;13.63;;;7.47;;
15563;SDS011;7883;52.554;13.364;2023-09-07T00:04:18;11.00;;;7.17;;
15563;SDS011;7883;52.554;13.364;2023-09-07T00:06:46;15.30;;;7.33;;
15563;SDS011;7883;52.554;13.364;2023-09-07T00:09:16;11.27;;;7.23;;
15563;SDS011;7883;52.554;13.364;2023-09-07T00:11:44;12.63;;;7.00;;
15563;SDS011;7883;52.554;13.364;2023-09-07T00:14:11;12.60;;;6.97;;
15563;SDS011;7883;52.554;13.364;2023-09-07T00:16:38;13.23;;;7.20;;
15563;SDS011;7883;52.554;13.364;2023-09-07T00:19:05;12.73;;;7.30;;
15563;SDS011;7883;52.554;13.364;2023-09-07T00:21:32;14.60;;;7.10;;
15563;SDS011;7883;52.554;13.364;2023-09-07T00:23:59;12.43;;;7.40;;
15563;SDS011;7883;52.554;13.364;2023-09-07T00:26:31;14.47;;;7.63;;
15563;SDS011;7883;52.554;13.364;2023-09-07T00:28:58;13.70;;;7.80;;
15563;SDS011;7883;52.554;13.364;2023-09-07T00:31:25;12.97;;;7.67;;
15563;SDS011;7883;52.554;13.364;2023-09-07T00:33:53;12.13;;;7.80;;
15563;SDS011;7883;52.554;13.364;2023-09-07T00:36:20;13.10;;;7.60;;
15563;SDS011;7883;52.554;13.364;2023-09-07T00:38:47;15.03;;;7.87;;
15563;SDS011;7883;52.554;13.364;2023-09-07T00:41:14;12.83;;;7.70;;
15563;SDS011;7883;52.554;13.364;2023-09-07T00:43:42;14.83;;;7.97;;
15563;SDS011;7883;52.554;13.364;2023-09-07T00:46:09;12.07;;;7.87;;
15563;SDS011;7883;52.554;13.364;2023-09-07T00:48:36;12.03;;;7.20;;
15563;SDS011;7883;52.554;13.364;2023-09-07T00:51:04;12.20;;;7.50;;
15563;SDS011;7883;52.554;13.364;2023-09-07T00:53:32;10.37;;;6.63;;
15563;SDS011;7883;52.554;13.364;2023-09-07T00:55:59;11.17;;;6.83;;
15563;SDS011;7883;52.554;13.364;2023-09-07T00:58:26;12.80;;;7.17;;
15563;SDS011;7883;52.554;13.364;2023-09-07T01:00:55;12.13;;;6.50;;
15563;SDS011;7883;52.554;13.364;2023-09-07T01:03:22;11.67;;;6.60;;
15563;SDS011;7883;52.554;13.364;2023-09-07T01:05:51;10.77;;;6.50;;
15563;SDS011;7883;52.554;13.364;2023-09-07T01:08:23;13.83;;;6.47;;
15563;SDS011;7883;52.554;13.364;2023-09-07T01:10:55;10.23;;;6.17;;
15563;SDS011;7883;52.554;13.364;2023-09-07T01:13:21;11.53;;;6.57;;
15563;SDS011;7883;52.554;13.364;2023-09-07T01:15:48;10.33;;;5.67;;
15563;SDS011;7883;52.554;13.364;2023-09-07T01:18:17;8.57;;;5.83;;
15563;SDS011;7883;52.554;13.364;2023-09-07T01:20:45;10.67;;;6.30;;
15563;SDS011;7883;52.554;13.364;2023-09-07T01:23:16;11.60;;;6.03;;
15563;SDS011;7883;52.554;13.364;2023-09-07T01:25:45;9.50;;;5.80;;
15563;SDS011;7883;52.554;13.364;2023-09-07T01:28:13;11.70;;;6.27;;
15563;SDS011;7883;52.554;13.364;2023-09-07T01:30:40;10.73;;;6.00;;
15563;SDS011;7883;52.554;13.364;2023-09-07T01:33:07;11.53;;;5.80;;
15563;SDS011;7883;52.554;13.364;2023-09-07T01:35:34;9.47;;;5.70;;
15563;SDS011;7883;52.554;13.364;2023-09-07T01:38:02;8.53;;;5.73;;
15563;SDS011;7883;52.554;13.364;2023-09-07T01:40:31;11.67;;;6.47;;
15563;SDS011;7883;52.554;13.364;2023-09-07T01:42:58;10.57;;;6.33;;
15563;SDS011;7883;52.554;13.364;2023-09-07T01:45:25;9.50;;;6.17;;
15563;SDS011;7883;52.554;13.364;2023-09-07T01:47:52;10.20;;;6.50;;
15563;SDS011;7883;52.554;13.364;2023-09-07T01:50:18;10.00;;;6.00;;
15563;SDS011;7883;52.554;13.364;2023-09-07T01:52:46;10.13;;;5.80;;
15563;SDS011;7883;52.554;13.364;2023-09-07T01:55:14;9.07;;;6.00;;
15563;SDS011;7883;52.554;13.364;2023-09-07T01:57:42;10.63;;;6.23;;
15563;SDS011;7883;52.554;13.364;2023-09-07T02:00:10;10.73;;;6.27;;
15563;SDS011;7883;52.554;13.364;2023-09-07T02:02:38;13.07;;;6.20;;
15563;SDS011;7883;52.554;13.364;2023-09-07T02:05:05;9.70;;;5.40;;
15563;SDS011;7883;52.554;13.364;2023-09-07T02:07:33;10.63;;;6.37;;
15563;SDS011;7883;52.554;13.364;2023-09-07T02:09:59;9.03;;;5.53;;
15563;SDS011;7883;52.554;13.364;2023-09-07T02:12:28;9.37;;;5.67;;
15563;SDS011;7883;52.554;13.364;2023-09-07T02:14:56;11.67;;;6.27;;
15563;SDS011;7883;52.554;13.364;2023-09-07T02:17:25;8.90;;;5.77;;
15563;SDS011;7883;52.554;13.364;2023-09-07T02:19:52;11.50;;;5.77;;
15563;SDS011;7883;52.554;13.364;2023-09-07T02:22:19;10.53;;;5.93;;
15563;SDS011;7883;52.554;13.364;2023-09-07T02:24:46;10.23;;;5.73;;
15563;SDS011;7883;52.554;13.364;2023-09-07T02:27:13;10.40;;;6.10;;
15563;SDS011;7883;52.554;13.364;2023-09-07T02:29:40;9.97;;;5.93;;
15563;SDS011;7883;52.554;13.364;2023-09-07T02:32:08;9.93;;;6.10;;
15563;SDS011;7883;52.554;13.364;2023-09-07T02:34:35;10.17;;;5.97;;
15563;SDS011;7883;52.554;13.364;2023-09-07T02:37:02;10.67;;;5.50;;
15563;SDS011;7883;52.554;13.364;2023-09-07T02:39:30;12.53;;;6.13;;
15563;SDS011;7883;52.554;13.364;2023-09-07T02:41:56;11.57;;;6.37;;
15563;SDS011;7883;52.554;13.364;2023-09-07T02:44:23;12.90;;;6.30;;
15563;SDS011;7883;52.554;13.364;2023-09-07T02:46:50;10.63;;;6.33;;
15563;SDS011;7883;52.554;13.364;2023-09-07T02:49:18;8.63;;;5.93;;
15563;SDS011;7883;52.554;13.364;2023-09-07T02:51:45;9.40;;;6.17;;
15563;SDS011;7883;52.554;13.364;2023-09-07T02:54:12;11.00;;;6.70;;
15563;SDS011;7883;52.554;13.364;2023-09-07T02:56:41;9.80;;;6.03;;
15563;SDS011;7883;52.554;13.364;2023-09-07T02:59:08;10.10;;;6.10;;
15563;SDS011;7883;52.554;13.364;2023-09-07T03:01:35;11.33;;;6.10;;
15563;SDS011;7883;52.554;13.364;2023-09-07T03:04:04;10.27;;;6.40;;
15563;SDS011;7883;52.554;13.364;2023-09-07T03:06:33;10.67;;;6.40;;
15563;SDS011;7883;52.554;13.364;2023-09-07T03:09:00;10.47;;;6.27;;
15563;SDS011;7883;52.554;13.364;2023-09-07T03:11:27;11.77;;;6.73;;
15563;SDS011;7883;52.554;13.364;2023-09-07T03:13:58;10.13;;;6.70;;
15563;SDS011;7883;52.554;13.364;2023-09-07T03:16:25;11.77;;;6.30;;
15563;SDS011;7883;52.554;13.364;2023-09-07T03:18:52;11.67;;;6.50;;
15563;SDS011;7883;52.554;13.364;2023-09-07T03:21:19;12.83;;;6.67;;
15563;SDS011;7883;52.554;13.364;2023-09-07T03:23:53;11.80;;;7.27;;
15563;SDS011;7883;52.554;13.364;2023-09-07T03:26:20;10.93;;;6.77;;
15563;SDS011;7883;52.554;13.364;2023-09-07T03:28:47;12.60;;;7.13;;
15563;SDS011;7883;52.554;13.364;2023-09-07T03:31:13;13.73;;;6.90;;
15563;SDS011;7883;52.554;13.364;2023-09-07T03:33:40;13.00;;;7.03;;
15563;SDS011;7883;52.554;13.364;2023-09-07T03:36:07;13.80;;;6.57;;
15563;SDS011;7883;52.554;13.364;2023-09-07T03:38:34;12.33;;;7.10;;
15563;SDS011;7883;52.554;13.364;2023-09-07T03:41:03;17.20;;;7.67;;
15563;SDS011;7883;52.554;13.364;2023-09-07T03:43:30;13.10;;;7.60;;
15563;SDS011;7883;52.554;13.364;2023-09-07T03:45:57;16.23;;;7.93;;
15563;SDS011;7883;52.554;13.364;2023-09-07T03:48:24;13.97;;;7.40;;
15563;SDS011;7883;52.554;13.364;2023-09-07T03:50:51;14.07;;;7.53;;
15563;SDS011;7883;52.554;13.364;2023-09-07T03:53:17;11.63;;;7.00;;
15563;SDS011;7883;52.554;13.364;2023-09-07T03:55:44;14.07;;;7.40;;
15563;SDS011;7883;52.554;13.364;2023-09-07T03:58:13;13.73;;;7.40;;
15563;SDS011;7883;52.554;13.364;2023-09-07T04:00:39;13.60;;;7.40;;
15563;SDS011;7883;52.554;13.364;2023-09-07T04:03:07;13.83;;;7.63;;
15563;SDS011;7883;52.554;13.364;2023-09-07T04:05:36;12.70;;;8.13;;
15563;SDS011;7883;52.554;13.364;2023-09-07T04:08:05;14.30;;;8.53;;
15563;SDS011;7883;52.554;13.364;2023-09-07T04:10:32;10.90;;;7.50;;
15563;SDS011;7883;52.554;13.364;2023-09-07T04:12:59;15.33;;;7.80;;
15563;SDS011;7883;52.554;13.364;2023-09-07T04:15:27;13.50;;;7.57;;
15563;SDS011;7883;52.554;13.364;2023-09-07T04:17:56;14.87;;;7.90;;
15563;SDS011;7883;52.554;13.364;2023-09-07T04:20:23;14.30;;;8.10;;
15563;SDS011;7883;52.554;13.364;2023-09-07T04:22:51;11.57;;;6.83;;
15563;SDS011;7883;52.554;13.364;2023-09-07T04:25:18;13.53;;;7.47;;
15563;SDS011;7883;52.554;13.364;2023-09-07T04:27:46;12.90;;;7.43;;
15563;SDS011;7883;52.554;13.364;2023-09-07T04:30:13;11.90;;;7.47;;
15563;SDS011;7883;52.554;13.364;2023-09-07T04:32:41;15.13;;;7.57;;
15563;SDS011;7883;52.554;13.364;2023-09-07T04:35:08;14.57;;;8.27;;
15563;SDS011;7883;52.554;13.364;2023-09-07T04:37:35;12.80;;;8.20;;
15563;SDS011;7883;52.554;13.364;2023-09-07T04:40:02;15.73;;;8.07;;
15563;SDS011;7883;52.554;13.364;2023-09-07T04:42:32;14.23;;;8.03;;
15563;SDS011;7883;52.554;13.364;2023-09-07T04:44:59;13.83;;;8.27;;
15563;SDS011;7883;52.554;13.364;2023-09-07T04:47:25;13.10;;;8.03;;
15563;SDS011;7883;52.554;13.364;2023-09-07T04:49:54;15.60;;;8.07;;
15563;SDS011;7883;52.554;13.364;2023-09-07T04:52:21;14.70;;;8.27;;
15563;SDS011;7883;52.554;13.364;2023-09-07T04:54:48;15.17;;;8.03;;
15563;SDS011;7883;52.554;13.364;2023-09-07T04:57:15;15.07;;;8.23;;
15563;SDS011;7883;52.554;13.364;2023-09-07T04:59:43;12.53;;;7.63;;
15563;SDS011;7883;52.554;13.364;2023-09-07T05:02:10;13.93;;;7.73;;
15563;SDS011;7883;52.554;13.364;2023-09-07T05:04:37;14.93;;;7.23;;
15563;SDS011;7883;52.554;13.364;2023-09-07T05:07:06;14.47;;;7.97;;
15563;SDS011;7883;52.554;13.364;2023-09-07T05:09:33;14.57;;;8.00;;
15563;SDS011;7883;52.554;13.364;2023-09-07T05:12:00;12.60;;;7.57;;
15563;SDS011;7883;52.554;13.364;2023-09-07T05:14:27;14.07;;;6.83;;
15563;SDS011;7883;52.554;13.364;2023-09-07T05:16:55;15.00;;;7.73;;
15563;SDS011;7883;52.554;13.364;2023-09-07T05:19:22;12.80;;;6.77;;
15563;SDS011;7883;52.554;13.364;2023-09-07T05:21:52;13.00;;;7.27;;
15563;SDS011;7883;52.554;13.364;2023-09-07T05:24:22;14.83;;;8.33;;
15563;SDS011;7883;52.554;13.364;2023-09-07T05:26:49;21.13;;;7.93;;
15563;SDS011;7883;52.554;13.364;2023-09-07T05:29:16;15.70;;;7.50;;
15563;SDS011;7883;52.554;13.364;2023-09-07T05:31:45;15.80;;;7.73;;
15563;SDS011;7883;52.554;13.364;2023-09-07T05:34:12;13.50;;;8.10;;
15563;SDS011;7883;52.554;13.364;2023-09-07T05:36:39;12.67;;;7.80;;
15563;SDS011;7883;52.554;13.364;2023-09-07T05:39:06;13.43;;;7.50;;
15563;SDS011;7883;52.554;13.364;2023-09-07T05:41:34;12.27;;;7.37;;
15563;SDS011;7883;52.554;13.364;2023-09-07T05:44:01;11.03;;;7.20;;
15563;SDS011;7883;52.554;13.364;2023-09-07T05:46:28;14.83;;;7.47;;
15563;SDS011;7883;52.554;13.364;2023-09-07T05:48:55;17.37;;;8.30;;
15563;SDS011;7883;52.554;13.364;2023-09-07T05:51:22;16.83;;;7.63;;
15563;SDS011;7883;52.554;13.364;2023-09-07T05:53:49;14.07;;;7.33;;
15563;SDS011;7883;52.554;13.364;2023-09-07T05:56:16;14.57;;;7.43;;
15563;SDS011;7883;52.554;13.364;2023-09-07T05:58:45;12.83;;;7.37;;
15563;SDS011;7883;52.554;13.364;2023-09-07T06:01:12;16.67;;;8.00;;
15563;SDS011;7883;52.554;13.364;2023-09-07T06:03:39;12.57;;;7.07;;
15563;SDS011;7883;52.554;13.364;2023-09-07T06:06:06;16.33;;;7.07;;
15563;SDS011;7883;52.554;13.364;2023-09-07T06:08:33;18.17;;;8.33;;
15563;SDS011;7883;52.554;13.364;2023-09-07T06:11:00;15.93;;;7.80;;
15563;SDS011;7883;52.554;13.364;2023-09-07T06:13:27;12.30;;;7.70;;
15563;SDS011;7883;52.554;13.364;2023-09-07T06:15:57;22.17;;;7.97;;
15563;SDS011;7883;52.554;13.364;2023-09-07T06:18:25;16.33;;;7.67;;
15563;SDS011;7883;52.554;13.364;2023-09-07T06:20:53;12.30;;;6.97;;
15563;SDS011;7883;52.554;13.364;2023-09-07T06:23:20;15.80;;;7.23;;
15563;SDS011;7883;52.554;13.364;2023-09-07T06:25:47;19.83;;;8.30;;
15563;SDS011;7883;52.554;13.364;2023-09-07T06:28:13;17.27;;;8.07;;
15563;SDS011;7883;52.554;13.364;2023-09-07T06:30:40;17.90;;;7.77;;
15563;SDS011;7883;52.554;13.364;2023-09-07T06:33:09;14.67;;;7.30;;
15563;SDS011;7883;52.554;13.364;2023-09-07T06:35:36;14.20;;;8.37;;
15563;SDS011;7883;52.554;13.364;2023-09-07T06:38:03;15.77;;;7.43;;
15563;SDS011;7883;52.554;13.364;2023-09-07T06:40:30;16.17;;;8.03;;
15563;SDS011;7883;52.554;13.364;2023-09-07T06:42:57;19.17;;;9.83;;
15563;SDS011;7883;52.554;13.364;2023-09-07T06:45:25;14.67;;;7.43;;
15563;SDS011;7883;52.554;13.364;2023-09-07T06:47:52;14.00;;;6.93;;
15563;SDS011;7883;52.554;13.364;2023-09-07T06:50:21;14.10;;;7.63;;
15563;SDS011;7883;52.554;13.364;2023-09-07T06:52:48;17.40;;;7.17;;
15563;SDS011;7883;52.554;13.364;2023-09-07T06:55:16;13.87;;;7.07;;
15563;SDS011;7883;52.554;13.364;2023-09-07T06:57:43;14.10;;;6.93;;
15563;SDS011;7883;52.554;13.364;2023-09-07T07:00:10;15.37;;;7.10;;
15563;SDS011;7883;52.554;13.364;2023-09-07T07:02:38;15.83;;;7.33;;
15563;SDS011;7883;52.554;13.364;2023-09-07T07:05:05;14.87;;;7.03;;
15563;SDS011;7883;52.554;13.364;2023-09-07T07:07:34;15.40;;;7.40;;
15563;SDS011;7883;52.554;13.364;2023-09-07T07:10:01;15.00;;;8.53;;
15563;SDS011;7883;52.554;13.364;2023-09-07T07:12:30;14.27;;;7.37;;
15563;SDS011;7883;52.554;13.364;2023-09-07T07:14:59;16.30;;;7.70;;
15563;SDS011;7883;52.554;13.364;2023-09-07T07:17:26;17.93;;;7.63;;
15563;SDS011;7883;52.554;13.364;2023-09-07T07:19:53;18.00;;;7.30;;
15563;SDS011;7883;52.554;13.364;2023-09-07T07:22:20;13.77;;;7.67;;
15563;SDS011;7883;52.554;13.364;2023-09-07T07:24:48;21.70;;;13.43;;
15563;SDS011;7883;52.554;13.364;2023-09-07T07:27:15;15.63;;;8.60;;
15563;SDS011;7883;52.554;13.364;2023-09-07T07:29:42;11.40;;;6.23;;
15563;SDS011;7883;52.554;13.364;2023-09-07T07:32:10;13.47;;;6.87;;
15563;SDS011;7883;52.554;13.364;2023-09-07T07:34:37;16.27;;;6.63;;
15563;SDS011;7883;52.554;13.364;2023-09-07T07:37:04;10.93;;;6.43;;
15563;SDS011;7883;52.554;13.364;2023-09-07T07:39:31;15.90;;;6.37;;
15563;SDS011;7883;52.554;13.364;2023-09-07T13:27:34;8.40;;;4.27;;
15563;SDS011;7883;52.554;13.364;2023-09-07T13:30:01;9.63;;;4.13;;
15563;SDS011;7883;52.554;13.364;2023-09-07T13:32:33;10.03;;;4.40;;
15563;SDS011;7883;52.554;13.364;2023-09-07T13:35:00;7.47;;;4.50;;
15563;SDS011;7883;52.554;13.364;2023-09-07T13:37:26;10.33;;;4.47;;
15563;SDS011;7883;52.554;13.364;2023-09-07T13:39:53;10.27;;;4.23;;
15563;SDS011;7883;52.554;13.364;2023-09-07T13:42:22;10.20;;;4.97;;
15563;SDS011;7883;52.554;13.364;2023-09-07T13:44:52;6.70;;;4.00;;
15563;SDS011;7883;52.554;13.364;2023-09-07T13:47:21;7.67;;;4.57;;
15563;SDS011;7883;52.554;13.364;2023-09-07T13:49:48;9.97;;;4.80;;
15563;SDS011;7883;52.554;13.364;2023-09-07T13:52:15;8.97;;;4.13;;
15563;SDS011;7883;52.554;13.364;2023-09-07T13:54:42;9.17;;;4.30;;
15563;SDS011;7883;52.554;13.364;2023-09-07T13:57:09;7.97;;;4.13;;
15563;SDS011;7883;52.554;13.364;2023-09-07T13:59:36;9.10;;;4.70;;
15563;SDS011;7883;52.554;13.364;2023-09-07T14:02:05;7.50;;;4.00;;
15563;SDS011;7883;52.554;13.364;2023-09-07T14:04:32;11.50;;;4.13;;
15563;SDS011;7883;52.554;13.364;2023-09-07T14:06:59;6.40;;;3.80;;
15563;SDS011;7883;52.554;13.364;2023-09-07T14:09:26;11.53;;;6.17;;
15563;SDS011;7883;52.554;13.364;2023-09-07T14:11:53;7.30;;;3.93;;
15563;SDS011;7883;52.554;13.364;2023-09-07T14:14:22;8.87;;;5.27;;
15563;SDS011;7883;52.554;13.364;2023-09-07T14:16:49;9.83;;;5.43;;
15563;SDS011;7883;52.554;13.364;2023-09-07T14:19:23;9.87;;;4.60;;
15563;SDS011;7883;52.554;13.364;2023-09-07T14:21:50;8.87;;;4.60;;
15563;SDS011;7883;52.554;13.364;2023-09-07T14:24:18;10.33;;;4.73;;
15563;SDS011;7883;52.554;13.364;2023-09-07T14:26:45;8.67;;;4.50;;
15563;SDS011;7883;52.554;13.364;2023-09-07T14:29:12;10.03;;;5.63;;
15563;SDS011;7883;52.554;13.364;2023-09-07T14:31:39;11.07;;;4.83;;
15563;SDS011;7883;52.554;13.364;2023-09-07T14:34:07;7.40;;;4.73;;
15563;SDS011;7883;52.554;13.364;2023-09-07T14:36:35;6.70;;;4.30;;
15563;SDS011;7883;52.554;13.364;2023-09-07T14:39:02;8.87;;;4.57;;
15563;SDS011;7883;52.554;13.364;2023-09-07T14:41:32;8.93;;;4.70;;
15563;SDS011;7883;52.554;13.364;2023-09-07T14:43:59;9.17;;;4.40;;
15563;SDS011;7883;52.554;13.364;2023-09-07T14:46:27;15.40;;;4.90;;
15563;SDS011;7883;52.554;13.364;2023-09-07T14:48:54;10.47;;;4.97;;
15563;SDS011;7883;52.554;13.364;2023-09-07T14:51:22;12.20;;;4.67;;
15563;SDS011;7883;52.554;13.364;2023-09-07T14:53:51;9.20;;;4.87;;
15563;SDS011;7883;52.554;13.364;2023-09-07T14:56:18;9.00;;;4.47;;
15563;SDS011;7883;52.554;13.364;2023-09-07T14:58:45;9.13;;;4.13;;
15563;SDS011;7883;52.554;13.364;2023-09-07T15:01:12;11.67;;;5.13;;
15563;SDS011;7883;52.554;13.364;2023-09-07T15:03:39;12.57;;;5.00;;
15563;SDS011;7883;52.554;13.364;2023-09-07T15:06:06;8.90;;;5.07;;
15563;SDS011;7883;52.554;13.364;2023-09-07T15:08:36;10.53;;;4.77;;
15563;SDS011;7883;52.554;13.364;2023-09-07T15:11:05;9.47;;;4.87;;
15563;SDS011;7883;52.554;13.364;2023-09-07T15:13:32;8.13;;;3.83;;
15563;SDS011;7883;52.554;13.364;2023-09-07T15:15:59;7.27;;;4.40;;
15563;SDS011;7883;52.554;13.364;2023-09-07T15:18:29;9.90;;;4.30;;
15563;SDS011;7883;52.554;13.364;2023-09-07T15:20:56;6.73;;;4.07;;
15563;SDS011;7883;52.554;13.364;2023-09-07T15:23:23;7.57;;;4.00;;
15563;SDS011;7883;52.554;13.364;2023-09-07T15:25:51;9.73;;;4.50;;
15563;SDS011;7883;52.554;13.364;2023-09-07T15:28:20;10.73;;;4.80;;
15563;SDS011;7883;52.554;13.364;2023-09-07T15:30:47;11.00;;;4.23;;
15563;SDS011;7883;52.554;13.364;2023-09-07T15:33:15;7.93;;;4.23;;
15563;SDS011;7883;52.554;13.364;2023-09-07T15:35:42;7.13;;;4.03;;
15563;SDS011;7883;52.554;13.364;2023-09-07T15:38:09;8.03;;;4.43;;
15563;SDS011;7883;52.554;13.364;2023-09-07T15:40:36;8.40;;;4.63;;
15563;SDS011;7883;52.554;13.364;2023-09-07T15:43:03;10.00;;;4.07;;
15563;SDS011;7883;52.554;13.364;2023-09-07T15:45:32;9.93;;;4.90;;
15563;SDS011;7883;52.554;13.364;2023-09-07T15:48:03;9.40;;;4.80;;
15563;SDS011;7883;52.554;13.364;2023-09-07T15:50:31;9.30;;;4.33;;
15563;SDS011;7883;52.554;13.364;2023-09-07T15:52:58;10.20;;;4.67;;
15563;SDS011;7883;52.554;13.364;2023-09-07T15:55:27;10.20;;;4.57;;
15563;SDS011;7883;52.554;13.364;2023-09-07T15:57:54;9.67;;;5.20;;
15563;SDS011;7883;52.554;13.364;2023-09-07T16:00:21;10.20;;;4.80;;
15563;SDS011;7883;52.554;13.364;2023-09-07T16:02:49;8.47;;;4.57;;
15563;SDS011;7883;52.554;13.364;2023-09-07T16:05:16;11.07;;;5.37;;
15563;SDS011;7883;52.554;13.364;2023-09-07T16:07:43;10.77;;;4.70;;
15563;SDS011;7883;52.554;13.364;2023-09-07T16:10:12;10.00;;;4.67;;
15563;SDS011;7883;52.554;13.364;2023-09-07T16:12:39;10.20;;;5.00;;
15563;SDS011;7883;52.554;13.364;2023-09-07T16:15:07;10.50;;;4.80;;
15563;SDS011;7883;52.554;13.364;2023-09-07T16:17:35;8.03;;;4.40;;
15563;SDS011;7883;52.554;13.364;2023-09-07T16:20:04;8.33;;;4.47;;
15563;SDS011;7883;52.554;13.364;2023-09-07T16:22:33;11.20;;;5.03;;
15563;SDS011;7883;52.554;13.364;2023-09-07T16:25:00;9.43;;;5.03;;
15563;SDS011;7883;52.554;13.364;2023-09-07T16:27:27;8.03;;;4.47;;
15563;SDS011;7883;52.554;13.364;2023-09-07T16:29:54;9.00;;;4.83;;
15563;SDS011;7883;52.554;13.364;2023-09-07T16:32:22;10.83;;;5.90;;
15563;SDS011;7883;52.554;13.364;2023-09-07T16:34:49;10.93;;;5.50;;
15563;SDS011;7883;52.554;13.364;2023-09-07T16:37:17;10.97;;;5.10;;
15563;SDS011;7883;52.554;13.364;2023-09-07T16:39:49;10.37;;;5.53;;
15563;SDS011;7883;52.554;13.364;2023-09-07T16:42:17;8.83;;;4.83;;
15563;SDS011;7883;52.554;13.364;2023-09-07T16:44:45;10.20;;;5.07;;
15563;SDS011;7883;52.554;13.364;2023-09-07T16:47:16;8.17;;;4.80;;
15563;SDS011;7883;52.554;13.364;2023-09-07T16:49:43;28.47;;;13.13;;
15563;SDS011;7883;52.554;13.364;2023-09-07T16:52:10;10.60;;;5.33;;
15563;SDS011;7883;52.554;13.364;2023-09-07T16:54:39;11.23;;;4.70;;
15563;SDS011;7883;52.554;13.364;2023-09-07T16:57:06;10.87;;;5.20;;
15563;SDS011;7883;52.554;13.364;2023-09-07T16:59:33;9.03;;;5.50;;
15563;SDS011;7883;52.554;13.364;2023-09-07T17:02:00;11.70;;;5.70;;
15563;SDS011;7883;52.554;13.364;2023-09-07T17:04:30;9.67;;;5.70;;
15563;SDS011;7883;52.554;13.364;2023-09-07T17:06:58;11.03;;;5.63;;
15563;SDS011;7883;52.554;13.364;2023-09-07T17:09:27;7.83;;;4.73;;
